createdAt,value
2018-08-19T00:00:03.953Z,0.00
2018-08-19T00:01:03.954Z,0.00
2018-08-19T00:02:03.935Z,0.00
2018-08-19T00:03:03.915Z,0.00
2018-08-19T00:04:03.943Z,0.00
2018-08-19T00:05:03.908Z,0.00
2018-08-19T00:06:03.892Z,0.00
2018-08-19T00:07:03.912Z,0.00
2018-08-19T00:08:03.871Z,0.00
2018-08-19T00:09:03.915Z,0.00
2018-08-19T00:10:03.863Z,0.00
2018-08-19T00:11:03.849Z,0.00
2018-08-19T00:12:03.829Z,0.00
2018-08-19T00:13:03.881Z,0.00
2018-08-19T00:14:03.817Z,0.00
2018-08-19T00:15:03.816Z,0.00
2018-08-19T00:16:03.794Z,0.00
2018-08-19T00:17:03.791Z,0.00
2018-08-19T00:18:03.775Z,0.00
2018-08-19T00:19:03.799Z,0.00
2018-08-19T00:20:03.762Z,0.00
2018-08-19T00:21:03.750Z,0.00
2018-08-19T00:22:03.751Z,0.00
2018-08-19T00:23:03.736Z,0.00
2018-08-19T00:24:03.751Z,0.00
2018-08-19T00:25:03.720Z,0.00
2018-08-19T00:26:03.695Z,0.00
2018-08-19T00:27:03.690Z,0.00
2018-08-19T00:28:03.683Z,0.00
2018-08-19T00:29:03.705Z,0.00
2018-08-19T00:30:03.664Z,0.00
2018-08-19T00:31:03.661Z,0.00
2018-08-19T00:32:03.634Z,0.00
2018-08-19T00:33:03.644Z,0.00
2018-08-19T00:34:03.646Z,0.00
2018-08-19T00:35:03.623Z,0.00
2018-08-19T00:36:03.659Z,0.00
2018-08-19T00:37:03.598Z,0.00
2018-08-19T00:38:03.589Z,0.00
2018-08-19T00:39:03.586Z,0.00
2018-08-19T00:40:03.571Z,0.00
2018-08-19T00:41:03.597Z,0.00
2018-08-19T00:42:03.589Z,0.00
2018-08-19T00:43:03.543Z,0.00
2018-08-19T00:44:03.534Z,0.00
2018-08-19T00:45:03.522Z,0.00
2018-08-19T00:46:03.532Z,0.00
2018-08-19T00:47:03.504Z,0.00
2018-08-19T00:48:03.509Z,0.00
2018-08-19T00:49:03.481Z,0.00
2018-08-19T00:50:03.476Z,0.00
2018-08-19T00:51:03.487Z,0.00
2018-08-19T00:52:03.446Z,0.00
2018-08-19T00:53:03.448Z,0.00
2018-08-19T00:54:03.458Z,0.00
2018-08-19T00:55:03.425Z,0.00
2018-08-19T00:56:03.449Z,0.00
2018-08-19T00:57:03.409Z,0.00
2018-08-19T00:58:03.385Z,0.00
2018-08-19T00:59:03.386Z,0.00
2018-08-19T01:00:03.380Z,0.00
2018-08-19T01:01:03.391Z,0.00
2018-08-19T01:02:03.363Z,0.00
2018-08-19T01:03:03.354Z,0.00
2018-08-19T01:04:03.343Z,0.00
2018-08-19T01:05:03.326Z,0.00
2018-08-19T01:06:03.353Z,0.00
2018-08-19T01:07:03.304Z,0.00
2018-08-19T01:08:03.298Z,0.00
2018-08-19T01:09:03.291Z,0.00
2018-08-19T01:10:03.284Z,0.00
2018-08-19T01:11:03.265Z,0.00
2018-08-19T01:12:03.253Z,0.00
2018-08-19T01:13:03.240Z,0.00
2018-08-19T01:14:03.303Z,0.00
2018-08-19T01:15:03.236Z,0.00
2018-08-19T01:16:03.209Z,0.00
2018-08-19T01:17:03.214Z,0.00
2018-08-19T01:18:03.202Z,0.00
2018-08-19T01:19:03.191Z,0.00
2018-08-19T01:20:03.176Z,0.00
2018-08-19T01:21:03.195Z,0.00
2018-08-19T01:22:03.160Z,0.00
2018-08-19T01:23:03.144Z,0.00
2018-08-19T01:24:03.142Z,0.00
2018-08-19T01:25:03.134Z,0.00
2018-08-19T01:26:03.148Z,0.00
2018-08-19T01:27:03.113Z,0.00
2018-08-19T01:28:03.106Z,0.00
2018-08-19T01:29:03.080Z,0.00
2018-08-19T01:30:03.071Z,0.00
2018-08-19T01:31:03.065Z,0.00
2018-08-19T01:32:03.048Z,0.00
2018-08-19T01:33:03.040Z,0.00
2018-08-19T01:34:03.029Z,0.00
2018-08-19T01:35:03.040Z,0.00
2018-08-19T01:36:03.014Z,0.00
2018-08-19T01:37:03.042Z,0.00
2018-08-19T01:38:03.000Z,0.00
2018-08-19T01:39:02.984Z,0.00
2018-08-19T01:40:02.980Z,0.00
2018-08-19T01:41:02.968Z,0.00
2018-08-19T01:42:02.982Z,0.00
2018-08-19T01:43:02.970Z,0.00
2018-08-19T01:44:02.938Z,0.00
2018-08-19T01:45:02.929Z,0.00
2018-08-19T01:46:02.918Z,0.00
2018-08-19T01:47:02.966Z,0.00
2018-08-19T01:48:02.892Z,0.00
2018-08-19T01:49:02.883Z,0.00
2018-08-19T01:50:02.883Z,0.00
2018-08-19T01:51:02.865Z,0.00
2018-08-19T01:52:02.872Z,0.00
2018-08-19T01:53:02.852Z,0.00
2018-08-19T01:54:02.831Z,0.00
2018-08-19T01:55:02.815Z,0.00
2018-08-19T01:56:02.822Z,0.00
2018-08-19T01:57:02.803Z,0.00
2018-08-19T01:58:02.828Z,0.00
2018-08-19T01:59:02.785Z,0.00
2018-08-19T02:00:02.768Z,0.00
2018-08-19T02:01:02.756Z,0.00
2018-08-19T02:02:02.752Z,0.00
2018-08-19T02:03:02.763Z,0.00
2018-08-19T02:04:02.736Z,0.00
2018-08-19T02:05:02.738Z,0.00
2018-08-19T02:06:02.710Z,0.00
2018-08-19T02:07:02.700Z,0.00
2018-08-19T02:08:02.721Z,0.00
2018-08-19T02:09:02.676Z,0.00
2018-08-19T02:10:02.705Z,0.00
2018-08-19T02:11:02.691Z,0.00
2018-08-19T02:12:02.643Z,0.00
2018-08-19T02:13:02.636Z,0.00
2018-08-19T02:14:02.624Z,0.00
2018-08-19T02:15:02.619Z,0.00
2018-08-19T02:16:02.663Z,0.00
2018-08-19T02:17:02.602Z,0.00
2018-08-19T02:18:02.591Z,0.00
2018-08-19T02:19:02.588Z,0.00
2018-08-19T02:20:02.562Z,0.00
2018-08-19T02:21:02.561Z,0.00
2018-08-19T02:22:02.581Z,0.00
2018-08-19T02:23:02.540Z,0.00
2018-08-19T02:24:02.524Z,0.00
2018-08-19T02:25:02.518Z,0.00
2018-08-19T02:26:02.509Z,0.00
2018-08-19T02:27:02.546Z,0.00
2018-08-19T02:28:02.488Z,0.00
2018-08-19T02:29:02.475Z,0.00
2018-08-19T02:30:02.462Z,0.00
2018-08-19T02:31:02.464Z,0.00
2018-08-19T02:32:02.446Z,0.00
2018-08-19T02:33:02.434Z,0.00
2018-08-19T02:34:02.418Z,0.00
2018-08-19T02:35:02.405Z,0.00
2018-08-19T02:36:02.395Z,0.00
2018-08-19T02:37:02.396Z,0.00
2018-08-19T02:38:02.386Z,0.00
2018-08-19T02:39:02.368Z,0.00
2018-08-19T02:40:02.367Z,0.00
2018-08-19T02:41:02.354Z,0.00
2018-08-19T02:42:02.332Z,0.00
2018-08-19T02:43:02.345Z,0.00
2018-08-19T02:44:02.398Z,0.00
2018-08-19T02:45:02.305Z,0.00
2018-08-19T02:46:02.291Z,0.00
2018-08-19T02:47:02.303Z,0.00
2018-08-19T02:48:02.281Z,0.00
2018-08-19T02:49:02.268Z,0.00
2018-08-19T02:50:02.269Z,0.00
2018-08-19T02:51:02.248Z,0.00
2018-08-19T02:52:02.242Z,0.00
2018-08-19T02:53:02.230Z,0.00
2018-08-19T02:54:02.264Z,0.00
2018-08-19T02:55:02.209Z,0.00
2018-08-19T02:56:02.197Z,0.00
2018-08-19T02:57:02.185Z,0.00
2018-08-19T02:58:02.181Z,0.00
2018-08-19T02:59:02.174Z,0.00
2018-08-19T03:00:02.163Z,0.00
2018-08-19T03:01:02.181Z,0.00
2018-08-19T03:02:02.136Z,0.00
2018-08-19T03:03:02.128Z,0.00
2018-08-19T03:04:02.117Z,0.00
2018-08-19T03:05:02.142Z,0.00
2018-08-19T03:06:02.128Z,0.00
2018-08-19T03:07:02.086Z,0.00
2018-08-19T03:08:02.079Z,0.00
2018-08-19T03:09:02.061Z,0.00
2018-08-19T03:10:02.055Z,0.00
2018-08-19T03:11:02.101Z,0.00
2018-08-19T03:12:02.034Z,0.00
2018-08-19T03:13:02.030Z,0.00
2018-08-19T03:14:02.014Z,0.00
2018-08-19T03:15:02.005Z,0.00
2018-08-19T03:16:01.992Z,0.00
2018-08-19T03:17:02.012Z,0.00
2018-08-19T03:18:01.977Z,0.00
2018-08-19T03:19:01.954Z,0.00
2018-08-19T03:20:01.954Z,0.00
2018-08-19T03:21:01.937Z,0.00
2018-08-19T03:22:01.994Z,0.00
2018-08-19T03:23:01.927Z,0.00
2018-08-19T03:24:01.900Z,0.00
2018-08-19T03:25:01.909Z,0.00
2018-08-19T03:26:01.877Z,0.00
2018-08-19T03:27:01.874Z,0.00
2018-08-19T03:28:01.879Z,0.00
2018-08-19T03:29:01.863Z,0.00
2018-08-19T03:30:01.852Z,0.00
2018-08-19T03:31:01.847Z,0.00
2018-08-19T03:32:01.826Z,0.00
2018-08-19T03:33:01.857Z,0.00
2018-08-19T03:34:01.810Z,0.00
2018-08-19T03:35:01.794Z,0.00
2018-08-19T03:36:01.785Z,0.00
2018-08-19T03:37:01.802Z,0.00
2018-08-19T03:38:01.861Z,0.00
2018-08-19T03:39:01.777Z,0.00
2018-08-19T03:40:01.734Z,0.00
2018-08-19T03:41:01.741Z,0.00
2018-08-19T03:42:01.718Z,0.00
2018-08-19T03:43:01.728Z,0.00
2018-08-19T03:44:01.723Z,0.00
2018-08-19T03:45:01.688Z,0.00
2018-08-19T03:46:01.681Z,0.00
2018-08-19T03:47:01.692Z,0.00
2018-08-19T03:48:01.652Z,0.00
2018-08-19T03:49:01.685Z,0.00
2018-08-19T03:50:01.711Z,0.00
2018-08-19T03:51:01.620Z,0.00
2018-08-19T03:52:01.610Z,0.00
2018-08-19T03:53:01.605Z,4.00
2018-08-19T03:54:01.620Z,4.00
2018-08-19T03:55:01.583Z,0.00
2018-08-19T03:56:01.599Z,4.00
2018-08-19T03:57:01.560Z,4.00
2018-08-19T03:58:01.557Z,4.00
2018-08-19T03:59:01.553Z,4.00
2018-08-19T04:00:01.536Z,4.00
2018-08-19T04:01:01.551Z,8.00
2018-08-19T04:02:01.508Z,4.00
2018-08-19T04:03:01.504Z,8.00
2018-08-19T04:04:01.489Z,8.00
2018-08-19T04:05:01.467Z,8.00
2018-08-19T04:06:01.504Z,12.00
2018-08-19T04:07:01.452Z,12.00
2018-08-19T04:08:01.451Z,12.00
2018-08-19T04:09:01.438Z,16.00
2018-08-19T04:10:01.433Z,20.00
2018-08-19T04:11:01.483Z,20.00
2018-08-19T04:12:01.402Z,24.00
2018-08-19T04:13:01.394Z,24.00
2018-08-19T04:14:01.381Z,28.00
2018-08-19T04:15:01.380Z,32.00
2018-08-19T04:16:01.360Z,32.00
2018-08-19T04:17:01.375Z,36.00
2018-08-19T04:18:01.342Z,40.00
2018-08-19T04:19:01.488Z,40.00
2018-08-19T04:20:01.323Z,44.00
2018-08-19T04:21:01.302Z,52.00
2018-08-19T04:22:01.305Z,56.00
2018-08-19T04:23:01.286Z,56.00
2018-08-19T04:24:01.275Z,60.00
2018-08-19T04:25:01.274Z,68.00
2018-08-19T04:26:01.322Z,72.00
2018-08-19T04:27:01.240Z,76.00
2018-08-19T04:28:01.232Z,80.00
2018-08-19T04:29:01.228Z,88.00
2018-08-19T04:30:01.214Z,96.00
2018-08-19T04:31:01.203Z,96.00
2018-08-19T04:32:01.202Z,104.00
2018-08-19T04:33:01.191Z,108.00
2018-08-19T04:34:01.176Z,116.00
2018-08-19T04:35:01.165Z,120.00
2018-08-19T04:36:01.142Z,128.00
2018-08-19T04:37:01.172Z,132.00
2018-08-19T04:38:01.141Z,140.00
2018-08-19T04:39:01.121Z,148.00
2018-08-19T04:40:01.108Z,152.00
2018-08-19T04:41:01.098Z,160.00
2018-08-19T04:42:01.118Z,168.00
2018-08-19T04:43:01.083Z,176.00
2018-08-19T04:44:01.074Z,180.00
2018-08-19T04:45:01.056Z,192.00
2018-08-19T04:46:01.045Z,200.00
2018-08-19T04:47:01.097Z,208.00
2018-08-19T04:48:01.036Z,212.00
2018-08-19T04:49:01.092Z,220.00
2018-08-19T04:50:01.002Z,232.00
2018-08-19T04:51:00.999Z,240.00
2018-08-19T04:52:00.970Z,248.00
2018-08-19T04:53:01.034Z,256.00
2018-08-19T04:54:00.956Z,264.00
2018-08-19T04:55:00.956Z,276.00
2018-08-19T04:56:00.942Z,284.00
2018-08-19T04:57:00.929Z,292.00
2018-08-19T04:58:00.923Z,300.00
2018-08-19T04:59:00.919Z,312.00
2018-08-19T05:00:00.968Z,324.00
2018-08-19T05:01:00.889Z,332.00
2018-08-19T05:02:00.888Z,344.00
2018-08-19T05:03:00.866Z,352.00
2018-08-19T05:04:00.857Z,360.00
2018-08-19T05:05:00.846Z,376.00
2018-08-19T05:06:00.887Z,388.00
2018-08-19T05:07:00.816Z,400.00
2018-08-19T05:08:00.922Z,412.00
2018-08-19T05:09:00.802Z,424.00
2018-08-19T05:10:00.786Z,440.00
2018-08-19T05:11:00.781Z,452.00
2018-08-19T05:12:00.786Z,464.00
2018-08-19T05:13:00.762Z,472.00
2018-08-19T05:14:00.752Z,484.00
2018-08-19T05:15:00.734Z,496.00
2018-08-19T05:16:00.733Z,508.00
2018-08-19T05:17:00.749Z,520.00
2018-08-19T05:18:00.709Z,532.00
2018-08-19T05:19:00.699Z,540.00
2018-08-19T05:20:00.685Z,552.00
2018-08-19T05:21:00.683Z,560.00
2018-08-19T05:22:00.682Z,576.00
2018-08-19T05:23:00.660Z,584.00
2018-08-19T05:24:00.644Z,592.00
2018-08-19T05:25:00.641Z,608.00
2018-08-19T05:26:00.628Z,620.00
2018-08-19T05:27:00.637Z,628.00
2018-08-19T05:28:00.602Z,640.00
2018-08-19T05:29:00.597Z,648.00
2018-08-19T05:30:00.588Z,656.00
2018-08-19T05:31:00.572Z,668.00
2018-08-19T05:32:00.614Z,680.00
2018-08-19T05:33:00.552Z,684.00
2018-08-19T05:34:00.543Z,696.00
2018-08-19T05:35:00.537Z,708.00
2018-08-19T05:36:00.522Z,724.00
2018-08-19T05:37:00.546Z,736.00
2018-08-19T05:38:00.525Z,748.00
2018-08-19T05:39:00.490Z,764.00
2018-08-19T05:40:00.482Z,772.00
2018-08-19T05:41:00.462Z,788.00
2018-08-19T05:42:00.484Z,800.00
2018-08-19T05:43:00.449Z,808.00
2018-08-19T05:44:00.436Z,816.00
2018-08-19T05:45:00.428Z,828.00
2018-08-19T05:46:00.420Z,836.00
2018-08-19T05:47:00.524Z,852.00
2018-08-19T05:48:00.425Z,860.00
2018-08-19T05:49:00.390Z,868.00
2018-08-19T05:50:00.376Z,880.00
2018-08-19T05:51:00.364Z,896.00
2018-08-19T05:52:00.349Z,908.00
2018-08-19T05:53:00.381Z,920.00
2018-08-19T05:54:00.377Z,932.00
2018-08-19T05:55:00.329Z,944.00
2018-08-19T05:56:00.313Z,956.00
2018-08-19T05:57:00.304Z,964.00
2018-08-19T05:58:00.365Z,972.00
2018-08-19T05:59:00.283Z,996.00
2018-08-19T06:00:00.280Z,1008.00
2018-08-19T06:01:00.335Z,1016.00
2018-08-19T06:02:00.258Z,1032.00
2018-08-19T06:03:00.253Z,1036.00
2018-08-19T06:04:00.246Z,1044.00
2018-08-19T06:05:00.226Z,1052.00
2018-08-19T06:06:00.218Z,1060.00
2018-08-19T06:07:00.215Z,1064.00
2018-08-19T06:08:00.224Z,1076.00
2018-08-19T06:09:00.187Z,1084.00
2018-08-19T06:10:00.184Z,1092.00
2018-08-19T06:11:00.171Z,1100.00
2018-08-19T06:12:00.147Z,1116.00
2018-08-19T06:13:00.171Z,1140.00
2018-08-19T06:14:00.136Z,1160.00
2018-08-19T06:15:00.124Z,1164.00
2018-08-19T06:16:00.269Z,1168.00
2018-08-19T06:17:00.102Z,1168.00
2018-08-19T06:18:00.100Z,1176.00
2018-08-19T06:19:00.088Z,1192.00
2018-08-19T06:20:00.081Z,1208.00
2018-08-19T06:21:00.096Z,1228.00
2018-08-19T06:22:00.120Z,1252.00
2018-08-19T06:23:00.043Z,1256.00
2018-08-19T06:24:00.025Z,1276.00
2018-08-19T06:25:00.063Z,1284.00
2018-08-19T06:26:00.027Z,1284.00
2018-08-19T06:27:00.042Z,1284.00
2018-08-19T06:27:59.988Z,1308.00
2018-08-19T06:29:00.185Z,1332.00
2018-08-19T06:29:59.981Z,1344.00
2018-08-19T06:30:59.987Z,1356.00
2018-08-19T06:31:59.982Z,1364.00
2018-08-19T06:32:59.943Z,1372.00
2018-08-19T06:33:59.939Z,1380.00
2018-08-19T06:35:00.044Z,1384.00
2018-08-19T06:35:59.916Z,1372.00
2018-08-19T06:36:59.928Z,1372.00
2018-08-19T06:37:59.893Z,1392.00
2018-08-19T06:38:59.916Z,1424.00
2018-08-19T06:39:59.901Z,1456.00
2018-08-19T06:40:59.903Z,1484.00
2018-08-19T06:41:59.859Z,1500.00
2018-08-19T06:42:59.848Z,1504.00
2018-08-19T06:43:59.839Z,1520.00
2018-08-19T06:44:59.884Z,1528.00
2018-08-19T06:45:59.815Z,1540.00
2018-08-19T06:46:59.806Z,1564.00
2018-08-19T06:47:59.796Z,1572.00
2018-08-19T06:48:59.788Z,1568.00
2018-08-19T06:49:59.769Z,1560.00
2018-08-19T06:50:59.773Z,1620.00
2018-08-19T06:51:59.761Z,1632.00
2018-08-19T06:52:59.748Z,1640.00
2018-08-19T06:53:59.736Z,1672.00
2018-08-19T06:54:59.727Z,1692.00
2018-08-19T06:55:59.724Z,1692.00
2018-08-19T06:56:59.700Z,1660.00
2018-08-19T06:57:59.692Z,1644.00
2018-08-19T06:58:59.831Z,1668.00
2018-08-19T06:59:59.709Z,1712.00
2018-08-19T07:00:59.708Z,1792.00
2018-08-19T07:01:59.671Z,1840.00
2018-08-19T07:02:59.641Z,1856.00
2018-08-19T07:03:59.751Z,1892.00
2018-08-19T07:04:59.638Z,1928.00
2018-08-19T07:05:59.774Z,1928.00
2018-08-19T07:06:59.611Z,1864.00
2018-08-19T07:07:59.658Z,1768.00
2018-08-19T07:08:59.600Z,1720.00
2018-08-19T07:09:59.585Z,1728.00
2018-08-19T07:10:59.577Z,1744.00
2018-08-19T07:11:59.561Z,1772.00
2018-08-19T07:12:59.561Z,1800.00
2018-08-19T07:13:59.563Z,1800.00
2018-08-19T07:14:59.544Z,1796.00
2018-08-19T07:15:59.529Z,1840.00
2018-08-19T07:16:59.522Z,1856.00
2018-08-19T07:17:59.539Z,1864.00
2018-08-19T07:18:59.495Z,1868.00
2018-08-19T07:19:59.508Z,1876.00
2018-08-19T07:20:59.483Z,1888.00
2018-08-19T07:21:59.473Z,1908.00
2018-08-19T07:22:59.469Z,1904.00
2018-08-19T07:23:59.461Z,1908.00
2018-08-19T07:24:59.459Z,1932.00
2018-08-19T07:25:59.447Z,1948.00
2018-08-19T07:26:59.424Z,1972.00
2018-08-19T07:27:59.425Z,1988.00
2018-08-19T07:28:59.419Z,2004.00
2018-08-19T07:29:59.402Z,2036.00
2018-08-19T07:30:59.432Z,2072.00
2018-08-19T07:31:59.384Z,2100.00
2018-08-19T07:32:59.371Z,2124.00
2018-08-19T07:33:59.370Z,2108.00
2018-08-19T07:34:59.372Z,2128.00
2018-08-19T07:35:59.377Z,2172.00
2018-08-19T07:36:59.520Z,2220.00
2018-08-19T07:37:59.341Z,2240.00
2018-08-19T07:38:59.317Z,2240.00
2018-08-19T07:39:59.317Z,2256.00
2018-08-19T07:40:59.329Z,2252.00
2018-08-19T07:41:59.289Z,2240.00
2018-08-19T07:42:59.318Z,2236.00
2018-08-19T07:43:59.343Z,2280.00
2018-08-19T07:44:59.270Z,2296.00
2018-08-19T07:45:59.262Z,2316.00
2018-08-19T07:46:59.249Z,2300.00
2018-08-19T07:47:59.273Z,2340.00
2018-08-19T07:48:59.338Z,2364.00
2018-08-19T07:49:59.229Z,2360.00
2018-08-19T07:50:59.220Z,2408.00
2018-08-19T07:51:59.240Z,2364.00
2018-08-19T07:52:59.205Z,2360.00
2018-08-19T07:53:59.223Z,2396.00
2018-08-19T07:54:59.187Z,2420.00
2018-08-19T07:55:59.165Z,2484.00
2018-08-19T07:56:59.191Z,2540.00
2018-08-19T07:57:59.156Z,2572.00
2018-08-19T07:58:59.199Z,2544.00
2018-08-19T07:59:59.141Z,2512.00
2018-08-19T08:00:59.133Z,2548.00
2018-08-19T08:01:59.371Z,2632.00
2018-08-19T08:02:59.114Z,2888.00
2018-08-19T08:03:59.107Z,3216.00
2018-08-19T08:04:59.119Z,2792.00
2018-08-19T08:05:59.097Z,2708.00
2018-08-19T08:06:59.082Z,4108.00
2018-08-19T08:07:59.106Z,3844.00
2018-08-19T08:08:59.281Z,3912.00
2018-08-19T08:09:59.086Z,3412.00
2018-08-19T08:10:59.082Z,2748.00
2018-08-19T08:11:59.040Z,2744.00
2018-08-19T08:12:59.039Z,2864.00
2018-08-19T08:13:59.088Z,2812.00
2018-08-19T08:14:59.007Z,2988.00
2018-08-19T08:15:59.002Z,2808.00
2018-08-19T08:16:58.989Z,2776.00
2018-08-19T08:17:58.996Z,3688.00
2018-08-19T08:18:58.990Z,3180.00
2018-08-19T08:19:59.002Z,3768.00
2018-08-19T08:20:58.983Z,3700.00
2018-08-19T08:21:58.963Z,4848.00
2018-08-19T08:22:58.955Z,3456.00
2018-08-19T08:23:58.938Z,3168.00
2018-08-19T08:24:58.984Z,3632.00
2018-08-19T08:25:58.914Z,3888.00
2018-08-19T08:26:58.917Z,3036.00
2018-08-19T08:27:58.922Z,3056.00
2018-08-19T08:28:58.957Z,3140.00
2018-08-19T08:29:58.899Z,3236.00
2018-08-19T08:30:58.883Z,3260.00
2018-08-19T08:31:58.886Z,3232.00
2018-08-19T08:32:58.868Z,3320.00
2018-08-19T08:33:58.907Z,3264.00
2018-08-19T08:34:58.854Z,3256.00
2018-08-19T08:35:58.832Z,3192.00
2018-08-19T08:36:58.835Z,3596.00
2018-08-19T08:37:58.840Z,3812.00
2018-08-19T08:38:58.814Z,3292.00
2018-08-19T08:39:58.846Z,3552.00
2018-08-19T08:40:58.801Z,3500.00
2018-08-19T08:41:58.798Z,3324.00
2018-08-19T08:42:58.782Z,3452.00
2018-08-19T08:43:58.792Z,3452.00
2018-08-19T08:44:58.820Z,3424.00
2018-08-19T08:45:58.757Z,3732.00
2018-08-19T08:46:58.761Z,3836.00
2018-08-19T08:47:58.848Z,3876.00
2018-08-19T08:48:58.748Z,3764.00
2018-08-19T08:49:58.734Z,4144.00
2018-08-19T08:50:58.762Z,4100.00
2018-08-19T08:51:58.723Z,3852.00
2018-08-19T08:52:58.713Z,3644.00
2018-08-19T08:53:58.706Z,3668.00
2018-08-19T08:54:58.688Z,3812.00
2018-08-19T08:55:58.709Z,4460.00
2018-08-19T08:56:58.728Z,4828.00
2018-08-19T08:57:58.672Z,4324.00
2018-08-19T08:58:58.824Z,4384.00
2018-08-19T08:59:58.644Z,3992.00
2018-08-19T09:00:58.643Z,3904.00
2018-08-19T09:01:58.700Z,4144.00
2018-08-19T09:02:58.627Z,4216.00
2018-08-19T09:03:58.623Z,3924.00
2018-08-19T09:04:58.622Z,4332.00
2018-08-19T09:05:58.613Z,4924.00
2018-08-19T09:06:58.603Z,4964.00
2018-08-19T09:07:58.601Z,4372.00
2018-08-19T09:08:58.592Z,4344.00
2018-08-19T09:09:58.573Z,4832.00
2018-08-19T09:10:58.568Z,4636.00
2018-08-19T09:11:58.567Z,5192.00
2018-08-19T09:12:58.567Z,4964.00
2018-08-19T09:13:58.603Z,5224.00
2018-08-19T09:14:58.614Z,4904.00
2018-08-19T09:15:58.542Z,6024.00
2018-08-19T09:16:58.532Z,5848.00
2018-08-19T09:17:58.530Z,5624.00
2018-08-19T09:18:58.518Z,6412.00
2018-08-19T09:19:58.515Z,6372.00
2018-08-19T09:20:58.512Z,8248.00
2018-08-19T09:21:58.500Z,5440.00
2018-08-19T09:22:58.534Z,14140.00
2018-08-19T09:23:58.476Z,6756.00
2018-08-19T09:24:58.482Z,5744.00
2018-08-19T09:25:58.508Z,11612.00
2018-08-19T09:26:58.462Z,9032.00
2018-08-19T09:27:58.457Z,6392.00
2018-08-19T09:28:58.455Z,5908.00
2018-08-19T09:29:58.443Z,5716.00
2018-08-19T09:30:58.463Z,6448.00
2018-08-19T09:31:58.430Z,6468.00
2018-08-19T09:32:58.508Z,15744.00
2018-08-19T09:33:58.423Z,14112.00
2018-08-19T09:34:58.423Z,5280.00
2018-08-19T09:35:58.437Z,11948.00
2018-08-19T09:36:58.400Z,11532.00
2018-08-19T09:37:58.394Z,7988.00
2018-08-19T09:38:58.383Z,7512.00
2018-08-19T09:39:58.382Z,21152.00
2018-08-19T09:40:58.379Z,34432.00
2018-08-19T09:41:58.354Z,27264.00
2018-08-19T09:42:58.370Z,22176.00
2018-08-19T09:43:58.354Z,28992.00
2018-08-19T09:44:58.349Z,40288.00
2018-08-19T09:45:58.332Z,52704.00
2018-08-19T09:46:58.325Z,61376.00
2018-08-19T09:47:58.491Z,56672.00
2018-08-19T09:48:58.325Z,51328.00
2018-08-19T09:49:58.317Z,49504.00
2018-08-19T09:50:58.303Z,31744.00
2018-08-19T09:51:58.310Z,10176.00
2018-08-19T09:52:58.339Z,7012.00
2018-08-19T09:53:58.334Z,5480.00
2018-08-19T09:54:58.308Z,5360.00
2018-08-19T09:55:58.350Z,5036.00
2018-08-19T09:56:58.300Z,5168.00
2018-08-19T09:57:58.283Z,5432.00
2018-08-19T09:58:58.280Z,8344.00
2018-08-19T09:59:58.270Z,7772.00
2018-08-19T10:00:58.264Z,15424.00
2018-08-19T10:01:58.289Z,15264.00
2018-08-19T10:02:58.265Z,14016.00
2018-08-19T10:03:58.261Z,8724.00
2018-08-19T10:04:58.255Z,30560.00
2018-08-19T10:05:58.255Z,16864.00
2018-08-19T10:06:58.271Z,8784.00
2018-08-19T10:07:58.247Z,5724.00
2018-08-19T10:08:58.247Z,5552.00
2018-08-19T10:09:58.243Z,5532.00
2018-08-19T10:10:58.232Z,13388.00
2018-08-19T10:11:58.291Z,22656.00
2018-08-19T10:12:58.219Z,17536.00
2018-08-19T10:13:58.220Z,30624.00
2018-08-19T10:14:58.206Z,46912.00
2018-08-19T10:15:58.210Z,20448.00
2018-08-19T10:16:58.247Z,13664.00
2018-08-19T10:17:58.244Z,7348.00
2018-08-19T10:18:58.247Z,53696.00
2018-08-19T10:19:58.191Z,57728.00
2018-08-19T10:20:58.177Z,61824.00
2018-08-19T10:21:58.172Z,61344.00
2018-08-19T10:22:58.181Z,53088.00
2018-08-19T10:23:58.176Z,30560.00
2018-08-19T10:24:58.201Z,21088.00
2018-08-19T10:25:58.170Z,24576.00
2018-08-19T10:26:58.169Z,23008.00
2018-08-19T10:27:58.158Z,21504.00
2018-08-19T10:28:58.161Z,7296.00
2018-08-19T10:29:58.203Z,11696.00
2018-08-19T10:30:58.157Z,7388.00
2018-08-19T10:31:58.158Z,6612.00
2018-08-19T10:32:58.158Z,6964.00
2018-08-19T10:33:58.199Z,6076.00
2018-08-19T10:35:01.786Z,8360.00
2018-08-19T10:35:58.152Z,9536.00
2018-08-19T10:36:58.132Z,10308.00
2018-08-19T10:37:58.181Z,12724.00
2018-08-19T10:38:58.139Z,8116.00
2018-08-19T10:39:58.140Z,7808.00
2018-08-19T10:40:58.136Z,7224.00
2018-08-19T10:41:58.138Z,4268.00
2018-08-19T10:42:58.124Z,3340.00
2018-08-19T10:43:58.121Z,4384.00
2018-08-19T10:44:58.125Z,7752.00
2018-08-19T10:45:58.118Z,8868.00
2018-08-19T10:46:58.114Z,6892.00
2018-08-19T10:47:58.121Z,5956.00
2018-08-19T10:48:58.103Z,4272.00
2018-08-19T10:49:58.104Z,4436.00
2018-08-19T10:50:58.094Z,5424.00
2018-08-19T10:51:58.092Z,5700.00
2018-08-19T10:52:58.138Z,6924.00
2018-08-19T10:53:58.086Z,6664.00
2018-08-19T10:54:58.080Z,6828.00
2018-08-19T10:55:58.078Z,6768.00
2018-08-19T10:56:58.071Z,4964.00
2018-08-19T10:57:58.064Z,3736.00
2018-08-19T10:58:58.069Z,3636.00
2018-08-19T10:59:58.374Z,3564.00
2018-08-19T11:00:58.061Z,3688.00
2018-08-19T11:01:58.044Z,3700.00
2018-08-19T11:02:58.037Z,3820.00
2018-08-19T11:03:58.043Z,3688.00
2018-08-19T11:04:58.024Z,3664.00
2018-08-19T11:05:58.028Z,3700.00
2018-08-19T11:06:58.024Z,3732.00
2018-08-19T11:07:58.005Z,3912.00
2018-08-19T11:08:58.004Z,3924.00
2018-08-19T11:09:58.008Z,3676.00
2018-08-19T11:10:57.999Z,4816.00
2018-08-19T11:11:58.027Z,4444.00
2018-08-19T11:12:57.987Z,6564.00
2018-08-19T11:13:58.046Z,5600.00
2018-08-19T11:14:57.970Z,3844.00
2018-08-19T11:15:57.985Z,12872.00
2018-08-19T11:16:57.960Z,9588.00
2018-08-19T11:17:57.969Z,11740.00
2018-08-19T11:18:57.960Z,5440.00
2018-08-19T11:19:57.974Z,4136.00
2018-08-19T11:20:57.986Z,13600.00
2018-08-19T11:21:57.941Z,3868.00
2018-08-19T11:22:57.936Z,6396.00
2018-08-19T11:23:57.960Z,6084.00
2018-08-19T11:24:57.964Z,4040.00
2018-08-19T11:25:57.921Z,4044.00
2018-08-19T11:26:57.927Z,3652.00
2018-08-19T11:27:57.915Z,11280.00
2018-08-19T11:28:57.907Z,1700.00
2018-08-19T11:29:57.932Z,4032.00
2018-08-19T11:30:57.896Z,4216.00
2018-08-19T11:31:57.904Z,4032.00
2018-08-19T11:32:57.889Z,4192.00
2018-08-19T11:33:57.895Z,3968.00
2018-08-19T11:34:57.878Z,4068.00
2018-08-19T11:35:57.865Z,4028.00
2018-08-19T11:36:57.871Z,3908.00
2018-08-19T11:37:57.860Z,3964.00
2018-08-19T11:38:57.862Z,3668.00
2018-08-19T11:39:57.855Z,3784.00
2018-08-19T11:40:57.883Z,476.00
2018-08-19T11:41:57.862Z,3760.00
2018-08-19T11:42:57.894Z,3632.00
2018-08-19T11:43:59.825Z,3668.00
2018-08-19T11:44:57.825Z,3888.00
2018-08-19T11:45:57.849Z,3712.00
2018-08-19T11:46:57.804Z,3840.00
2018-08-19T11:47:57.807Z,3812.00
2018-08-19T11:48:57.808Z,3848.00
2018-08-19T11:49:57.833Z,3768.00
2018-08-19T11:50:57.789Z,3828.00
2018-08-19T11:51:57.792Z,6588.00
2018-08-19T11:52:57.788Z,3872.00
2018-08-19T11:53:57.772Z,4132.00
2018-08-19T11:54:57.838Z,3760.00
2018-08-19T11:55:57.767Z,4000.00
2018-08-19T11:56:57.765Z,3808.00
2018-08-19T11:57:57.763Z,4480.00
2018-08-19T11:58:57.757Z,3908.00
2018-08-19T11:59:57.742Z,4220.00
2018-08-19T12:00:57.795Z,4284.00
2018-08-19T12:01:57.746Z,5100.00
2018-08-19T12:02:57.731Z,3884.00
2018-08-19T12:03:57.724Z,8004.00
2018-08-19T12:04:57.727Z,7180.00
2018-08-19T12:05:57.723Z,25344.00
2018-08-19T12:06:57.741Z,4828.00
2018-08-19T12:07:57.716Z,8840.00
2018-08-19T12:08:57.694Z,3928.00
2018-08-19T12:09:58.224Z,12992.00
2018-08-19T12:10:57.694Z,3500.00
2018-08-19T12:11:58.129Z,4184.00
2018-08-19T12:12:57.680Z,23328.00
2018-08-19T12:13:57.675Z,4008.00
2018-08-19T12:14:57.675Z,4096.00
2018-08-19T12:15:57.673Z,5484.00
2018-08-19T12:16:58.349Z,2936.00
2018-08-19T12:17:57.660Z,4136.00
2018-08-19T12:18:57.644Z,2928.00
2018-08-19T12:19:57.650Z,3988.00
2018-08-19T12:20:58.250Z,4348.00
2018-08-19T12:21:57.928Z,4668.00
2018-08-19T12:22:57.638Z,4840.00
2018-08-19T12:23:57.637Z,4872.00
2018-08-19T12:24:57.625Z,3544.00
2018-08-19T12:25:57.626Z,28832.00
2018-08-19T12:26:57.621Z,9416.00
2018-08-19T12:27:57.647Z,12192.00
2018-08-19T12:28:57.617Z,12708.00
2018-08-19T12:29:57.603Z,2712.00